This is the latest recevied weather packets stored in our database for station/object DC5DM-13. If no packets are shown the sender has not sent any weather packets the latest 10 day(s).
| Time | Temp. | Humidity | Pressure | Rain* | Wind** | Luminosity | Snow |
|---|---|---|---|---|---|---|---|
| 1777601451 | 8.89° C | 58% | 1027.5 hPa | 0 mm | - | - | - |
| 1777600880 | 8.89° C | 58% | 1027.6 hPa | 0 mm | - | - | - |
| 1777600250 | 8.89° C | 59% | 1027.7 hPa | 0 mm | - | - | - |
| 1777599675 | 8.33° C | 62% | 1027.5 hPa | 0 mm | - | - | - |
| 1777599036 | 8.33° C | 63% | 1027.8 hPa | 0 mm | - | - | - |
| 1777598466 | 7.78° C | 64% | 1027.7 hPa | 0 mm | - | - | - |
| 1777597830 | 7.78° C | 65% | 1027.7 hPa | 0 mm | - | - | - |
| 1777597261 | 7.78° C | 66% | 1027.8 hPa | 0 mm | - | - | - |
| 1777596629 | 7.78° C | 66% | 1028 hPa | 0 mm | - | - | - |
| 1777596060 | 8.33° C | 65% | 1028 hPa | 0 mm | - | - | - |
| 1777595428 | 8.89° C | 62% | 1028 hPa | 0 mm | - | - | - |
| 1777594861 | 8.89° C | 61% | 1028 hPa | 0 mm | - | - | - |
| 1777594229 | 8.89° C | 62% | 1028 hPa | 0 mm | - | - | - |
| 1777593660 | 8.89° C | 62% | 1028 hPa | 0 mm | - | - | - |
| 1777593079 | 8.89° C | 62% | 1028 hPa | 0 mm | - | - | - |
| 1777592437 | 8.89° C | 62% | 1027.9 hPa | 0 mm | - | - | - |
| 1777591864 | 8.89° C | 63% | 1027.9 hPa | 0 mm | - | - | - |
| 1777591232 | 8.89° C | 63% | 1028 hPa | 0 mm | - | - | - |
| 1777590663 | 8.33° C | 63% | 1028.1 hPa | 0 mm | - | - | - |
| 1777590031 | 8.89° C | 63% | 1028.1 hPa | 0 mm | - | - | - |
| 1777589463 | 8.89° C | 63% | 1028 hPa | 0 mm | - | - | - |
| 1777588832 | 8.89° C | 61% | 1028.1 hPa | 0 mm | - | - | - |
| 1777588263 | 8.89° C | 60% | 1028.2 hPa | 0 mm | - | - | - |
| 1777587631 | 9.44° C | 59% | 1028.1 hPa | 0 mm | - | - | - |
| 1777587063 | 9.44° C | 59% | 1028.1 hPa | 0 mm | - | - | - |
* Rain latest hour (hover to see other rain measurements)
** Current wind speed in m/s (hover to see current wind gust speed)